createdAt,value
2023-03-31T00:01:57.956Z,4.25
2023-03-31T00:04:26.514Z,3.45
2023-03-31T00:06:54.941Z,3.90
2023-03-31T00:09:22.320Z,3.80
2023-03-31T00:11:49.905Z,3.83
2023-03-31T00:14:18.152Z,3.75
2023-03-31T00:16:45.542Z,2.78
2023-03-31T00:19:19.126Z,4.28
2023-03-31T00:21:48.387Z,4.27
2023-03-31T00:24:16.562Z,4.15
2023-03-31T00:26:44.070Z,4.43
2023-03-31T00:29:12.292Z,4.82
2023-03-31T00:31:39.833Z,4.28
2023-03-31T00:34:07.468Z,3.77
2023-03-31T00:36:37.212Z,3.72
2023-03-31T00:39:08.877Z,3.90
2023-03-31T00:41:37.286Z,3.63
2023-03-31T00:44:08.445Z,3.20
2023-03-31T00:46:38.603Z,3.43
2023-03-31T00:49:05.657Z,3.83
2023-03-31T00:51:34.215Z,3.30
2023-03-31T00:54:05.604Z,3.42
2023-03-31T00:56:36.159Z,3.10
2023-03-31T00:59:05.007Z,3.60
2023-03-31T01:01:32.225Z,3.30
2023-03-31T01:03:59.503Z,3.30
2023-03-31T01:06:30.945Z,3.53
2023-03-31T01:08:58.177Z,3.47
2023-03-31T01:11:27.577Z,2.80
2023-03-31T01:13:57.076Z,3.13
2023-03-31T01:16:24.557Z,2.80
2023-03-31T01:18:51.778Z,3.28
2023-03-31T01:21:33.059Z,2.30
2023-03-31T01:24:15.197Z,1.83
2023-03-31T01:26:51.263Z,2.58
2023-03-31T01:29:31.934Z,1.83
2023-03-31T01:32:09.281Z,1.83
2023-03-31T01:34:56.882Z,1.95
2023-03-31T01:37:44.999Z,2.37
2023-03-31T01:40:30.736Z,1.98
2023-03-31T01:43:02.713Z,2.97
2023-03-31T01:45:36.839Z,3.03
2023-03-31T01:48:08.466Z,4.15
2023-03-31T01:50:37.195Z,3.80
2023-03-31T01:53:06.349Z,4.20
2023-03-31T01:55:35.954Z,4.03
2023-03-31T01:58:07.014Z,4.40
2023-03-31T02:00:37.360Z,3.72
2023-03-31T02:03:06.023Z,4.37
2023-03-31T02:05:35.412Z,4.00
2023-03-31T02:08:04.715Z,4.35
2023-03-31T02:10:32.166Z,3.90
2023-03-31T02:13:01.058Z,3.88
2023-03-31T02:15:31.498Z,3.97
2023-03-31T02:17:59.968Z,4.00
2023-03-31T02:20:29.253Z,3.65
2023-03-31T02:22:57.177Z,4.05
2023-03-31T02:25:26.475Z,4.10
2023-03-31T02:27:56.142Z,3.80
2023-03-31T02:30:24.348Z,3.20
2023-03-31T02:32:52.894Z,3.03
2023-03-31T02:35:21.740Z,3.40
2023-03-31T02:37:50.689Z,2.78
2023-03-31T02:40:19.368Z,3.40
2023-03-31T02:42:46.682Z,3.00
2023-03-31T02:45:37.629Z,3.10
2023-03-31T02:48:07.143Z,3.20
2023-03-31T02:50:40.082Z,2.92
2023-03-31T02:53:11.428Z,3.00
2023-03-31T02:55:44.477Z,3.20
2023-03-31T02:58:29.897Z,2.67
2023-03-31T03:01:10.366Z,2.60
2023-03-31T03:03:42.104Z,2.38
2023-03-31T03:06:16.950Z,1.53
2023-03-31T03:08:55.772Z,1.75
2023-03-31T03:11:26.969Z,2.13
2023-03-31T03:13:58.784Z,2.33
2023-03-31T03:16:27.568Z,3.00
2023-03-31T03:18:59.668Z,2.97
2023-03-31T03:21:26.975Z,3.90
2023-03-31T03:23:54.933Z,3.92
2023-03-31T03:26:23.984Z,4.30
2023-03-31T03:28:51.326Z,4.35
2023-03-31T03:31:18.839Z,4.37
2023-03-31T03:33:46.664Z,4.90
2023-03-31T03:36:15.181Z,4.53
2023-03-31T03:38:42.670Z,5.50
2023-03-31T03:41:10.308Z,4.32
2023-03-31T03:43:37.585Z,5.30
2023-03-31T03:46:05.666Z,5.38
2023-03-31T03:48:33.112Z,5.07
2023-03-31T03:51:00.145Z,4.97
2023-03-31T03:53:28.577Z,4.68
2023-03-31T03:55:56.481Z,4.13
2023-03-31T03:58:24.446Z,4.25
2023-03-31T04:00:51.790Z,3.83
2023-03-31T04:03:18.998Z,3.97
2023-03-31T04:05:49.913Z,3.80
2023-03-31T04:08:17.354Z,3.70
2023-03-31T04:10:46.604Z,3.75
2023-03-31T04:13:13.807Z,3.40
2023-03-31T04:15:41.116Z,3.25
2023-03-31T04:18:11.320Z,3.75
2023-03-31T04:20:39.193Z,3.40
2023-03-31T04:23:09.746Z,3.33
2023-03-31T04:25:38.700Z,3.80
2023-03-31T04:28:10.739Z,3.78
2023-03-31T04:30:40.044Z,5.22
2023-03-31T04:33:07.055Z,4.80
2023-03-31T04:35:52.808Z,5.13
2023-03-31T04:38:20.866Z,5.68
2023-03-31T04:40:48.374Z,5.72
2023-03-31T04:43:17.468Z,5.35
2023-03-31T04:45:44.824Z,6.10
2023-03-31T04:48:11.945Z,6.40
2023-03-31T04:50:40.243Z,5.97
2023-03-31T04:53:07.332Z,7.10
2023-03-31T04:55:34.887Z,8.30
2023-03-31T04:58:02.129Z,11.43
2023-03-31T05:00:33.009Z,8.73
2023-03-31T05:03:00.196Z,7.57
2023-03-31T05:05:27.969Z,7.50
2023-03-31T05:07:55.345Z,7.50
2023-03-31T05:10:22.560Z,7.30
2023-03-31T05:12:50.046Z,3.55
2023-03-31T05:15:17.716Z,1.80
2023-03-31T05:17:46.276Z,1.80
2023-03-31T05:20:14.875Z,1.30
2023-03-31T05:22:43.863Z,1.50
2023-03-31T05:25:12.053Z,1.80
2023-03-31T05:27:39.200Z,2.85
2023-03-31T05:30:08.291Z,2.88
2023-03-31T05:32:35.490Z,2.72
2023-03-31T05:35:04.236Z,2.03
2023-03-31T05:37:31.822Z,3.15
2023-03-31T05:39:59.359Z,3.40
2023-03-31T05:42:27.126Z,3.22
2023-03-31T05:44:54.601Z,2.10
2023-03-31T05:47:24.327Z,3.10
2023-03-31T05:49:54.378Z,3.47
2023-03-31T05:52:23.120Z,2.33
2023-03-31T05:54:50.134Z,3.45
2023-03-31T05:57:17.408Z,2.95
2023-03-31T05:59:44.404Z,2.20
2023-03-31T06:02:13.665Z,2.40
2023-03-31T06:04:41.348Z,1.50
2023-03-31T06:07:08.480Z,2.00
2023-03-31T06:09:39.232Z,2.10
2023-03-31T06:12:08.689Z,2.27
2023-03-31T06:14:35.783Z,1.25
2023-03-31T06:17:02.913Z,1.50
2023-03-31T06:19:30.118Z,1.50
2023-03-31T06:21:57.677Z,1.20
2023-03-31T06:24:24.878Z,1.50
2023-03-31T06:26:54.007Z,1.40
2023-03-31T06:29:21.285Z,0.90
2023-03-31T06:31:51.216Z,2.03
2023-03-31T06:34:20.047Z,1.20
2023-03-31T06:36:48.290Z,1.40
2023-03-31T06:39:16.144Z,1.50
2023-03-31T06:41:56.832Z,1.27
2023-03-31T06:44:36.887Z,1.02
2023-03-31T06:47:04.209Z,1.10
2023-03-31T06:49:31.513Z,1.50
2023-03-31T06:51:58.789Z,2.65
2023-03-31T06:54:26.234Z,1.48
2023-03-31T06:56:53.553Z,1.30
2023-03-31T06:59:22.007Z,1.13
2023-03-31T07:01:50.875Z,1.67
2023-03-31T07:04:19.403Z,1.95
2023-03-31T07:06:46.561Z,2.15
2023-03-31T07:09:13.764Z,1.63
2023-03-31T07:11:43.662Z,1.67
2023-03-31T07:14:10.878Z,1.37
2023-03-31T07:16:41.394Z,3.03
2023-03-31T07:19:10.861Z,1.85
2023-03-31T07:21:38.095Z,1.30
2023-03-31T07:24:06.829Z,1.95
2023-03-31T07:26:34.112Z,1.57
2023-03-31T07:29:01.432Z,2.97
2023-03-31T07:31:29.534Z,1.40
2023-03-31T07:33:58.280Z,1.92
2023-03-31T07:36:25.398Z,1.95
2023-03-31T07:38:55.629Z,2.03
2023-03-31T07:41:23.197Z,3.65
2023-03-31T07:43:51.062Z,1.63
2023-03-31T07:46:19.390Z,1.70
2023-03-31T07:48:46.812Z,1.30
2023-03-31T07:51:16.629Z,1.60
2023-03-31T07:53:43.911Z,1.33
2023-03-31T07:56:11.227Z,1.58
2023-03-31T07:58:38.311Z,2.20
2023-03-31T08:01:33.376Z,2.03
2023-03-31T08:05:02.099Z,1.90
2023-03-31T08:07:49.516Z,1.88
2023-03-31T08:10:33.104Z,1.83
2023-03-31T08:13:02.026Z,1.80
2023-03-31T08:16:39.018Z,1.80
2023-03-31T08:23:16.256Z,1.92
2023-03-31T08:36:52.323Z,1.60
2023-03-31T08:42:33.210Z,1.60
2023-03-31T08:45:05.002Z,1.23
2023-03-31T08:47:46.872Z,1.40
2023-03-31T08:50:15.638Z,1.53
2023-03-31T08:52:44.207Z,1.60
2023-03-31T08:55:16.536Z,1.83
2023-03-31T08:57:47.195Z,1.80
2023-03-31T09:00:15.751Z,2.05
2023-03-31T09:02:50.502Z,2.00
2023-03-31T09:05:37.837Z,1.70
2023-03-31T09:08:13.490Z,1.65
2023-03-31T09:10:45.636Z,1.80
2023-03-31T09:13:30.444Z,1.83
2023-03-31T09:16:02.478Z,1.40
2023-03-31T09:18:31.796Z,1.85
2023-03-31T09:21:02.989Z,1.70
2023-03-31T09:23:32.985Z,2.20
2023-03-31T09:26:03.088Z,1.73
2023-03-31T09:28:31.680Z,1.93
2023-03-31T09:30:58.780Z,1.90
2023-03-31T09:33:34.334Z,1.60
2023-03-31T09:36:07.613Z,1.95
2023-03-31T09:38:35.454Z,1.85
2023-03-31T09:41:06.474Z,1.80
2023-03-31T09:43:36.956Z,1.80
2023-03-31T09:46:09.109Z,1.85
2023-03-31T09:48:38.064Z,1.52
2023-03-31T09:51:06.752Z,1.83
2023-03-31T09:53:38.577Z,2.10
2023-03-31T09:56:14.432Z,2.13
2023-03-31T09:59:27.644Z,2.30
2023-03-31T10:02:04.790Z,2.00
2023-03-31T10:04:33.200Z,1.65
2023-03-31T10:07:00.846Z,2.20
2023-03-31T10:09:29.305Z,1.70
2023-03-31T10:11:59.129Z,2.33
2023-03-31T10:14:28.268Z,1.83
2023-03-31T10:16:56.012Z,1.77
2023-03-31T10:19:24.588Z,1.53
2023-03-31T10:21:56.184Z,1.77
2023-03-31T10:24:23.519Z,1.63
2023-03-31T10:26:54.105Z,1.52
2023-03-31T10:29:25.767Z,1.73
2023-03-31T10:32:00.880Z,1.70
2023-03-31T10:34:28.035Z,1.35
2023-03-31T10:36:56.615Z,1.40
2023-03-31T10:39:26.042Z,1.40
2023-03-31T10:41:53.877Z,1.50
2023-03-31T10:44:38.136Z,1.40
2023-03-31T10:47:06.610Z,1.90
2023-03-31T10:49:37.841Z,2.15
2023-03-31T10:52:14.149Z,1.58
2023-03-31T10:58:38.404Z,1.50
2023-03-31T11:01:14.169Z,1.20
2023-03-31T11:04:08.027Z,2.20
2023-03-31T11:06:48.447Z,1.70
2023-03-31T11:09:22.566Z,1.30
2023-03-31T11:11:56.143Z,1.70
2023-03-31T11:14:26.236Z,1.80
2023-03-31T11:16:59.385Z,2.40
2023-03-31T11:19:35.402Z,2.00
2023-03-31T11:22:06.480Z,1.83
2023-03-31T11:24:42.585Z,2.20
2023-03-31T11:27:22.065Z,1.90
2023-03-31T11:29:51.708Z,2.92
2023-03-31T11:32:36.654Z,2.00
2023-03-31T11:35:14.557Z,1.52
2023-03-31T11:37:50.788Z,2.10
2023-03-31T11:40:32.619Z,2.08
2023-03-31T11:43:07.081Z,1.40
2023-03-31T11:45:36.278Z,2.33
2023-03-31T11:48:07.716Z,2.33
2023-03-31T11:50:40.037Z,2.47
2023-03-31T11:53:11.556Z,2.10
2023-03-31T11:55:39.585Z,2.22
2023-03-31T11:58:14.557Z,1.67
2023-03-31T12:00:45.625Z,2.08
2023-03-31T12:03:15.514Z,2.23
2023-03-31T12:05:46.242Z,2.33
2023-03-31T12:08:16.378Z,3.00
2023-03-31T12:10:46.810Z,2.20
2023-03-31T12:13:25.613Z,1.95
2023-03-31T12:16:01.447Z,2.07
2023-03-31T12:18:38.277Z,2.20
2023-03-31T12:21:07.964Z,2.08
2023-03-31T12:23:38.908Z,2.00
2023-03-31T12:26:08.909Z,2.20
2023-03-31T12:28:37.942Z,1.80
2023-03-31T12:31:06.453Z,2.00
2023-03-31T12:33:35.999Z,17.00
2023-03-31T12:36:12.155Z,3.70
2023-03-31T12:38:46.646Z,2.58
2023-03-31T12:41:16.156Z,4.23
2023-03-31T12:43:49.637Z,2.17
2023-03-31T12:46:22.276Z,2.25
2023-03-31T12:48:58.450Z,1.65
2023-03-31T12:51:34.411Z,5.25
2023-03-31T12:54:09.559Z,1.80
2023-03-31T12:56:51.277Z,2.80
2023-03-31T12:59:19.164Z,1.52
2023-03-31T13:02:01.283Z,1.60
2023-03-31T13:04:28.760Z,1.88
2023-03-31T13:07:00.041Z,4.17
2023-03-31T13:09:53.363Z,2.28
2023-03-31T13:12:21.770Z,4.70
2023-03-31T13:14:51.787Z,3.42
2023-03-31T13:17:23.128Z,3.80
2023-03-31T13:19:51.242Z,3.47
2023-03-31T13:22:31.607Z,3.50
2023-03-31T13:41:09.726Z,1.75
2023-03-31T13:43:44.828Z,2.50
2023-03-31T13:46:31.611Z,2.08
2023-03-31T13:49:04.001Z,1.92
2023-03-31T13:51:47.222Z,1.60
2023-03-31T13:54:38.272Z,1.60
2023-03-31T13:57:32.267Z,1.42
2023-03-31T14:00:12.746Z,1.83
2023-03-31T14:02:56.329Z,1.38
2023-03-31T14:05:30.941Z,1.30
2023-03-31T14:07:59.255Z,1.80
2023-03-31T14:10:28.219Z,1.98
2023-03-31T14:13:05.070Z,1.80
2023-03-31T14:15:35.106Z,1.75
2023-03-31T14:18:03.413Z,1.70
2023-03-31T14:20:33.400Z,1.40
2023-03-31T14:23:06.930Z,1.70
2023-03-31T14:25:38.039Z,1.60
2023-03-31T14:28:12.471Z,1.45
2023-03-31T14:30:46.908Z,1.43
2023-03-31T14:33:25.279Z,1.35
2023-03-31T14:35:56.256Z,1.02
2023-03-31T14:38:23.848Z,1.50
2023-03-31T14:40:54.593Z,1.27
2023-03-31T14:43:22.791Z,1.50
2023-03-31T14:45:57.585Z,1.88
2023-03-31T14:48:27.978Z,1.70
2023-03-31T14:50:57.646Z,1.30
2023-03-31T14:53:25.979Z,1.63
2023-03-31T14:55:59.191Z,1.87
2023-03-31T14:58:28.451Z,1.90
2023-03-31T15:00:57.029Z,1.73
2023-03-31T15:03:25.847Z,1.58
2023-03-31T15:05:56.378Z,2.72
2023-03-31T15:08:24.200Z,1.80
2023-03-31T15:10:58.655Z,1.58
2023-03-31T15:13:32.977Z,3.83
2023-03-31T15:16:19.180Z,2.35
2023-03-31T15:18:46.887Z,2.20
2023-03-31T15:21:19.858Z,3.03
2023-03-31T15:23:46.852Z,2.95
2023-03-31T15:26:15.512Z,1.42
2023-03-31T15:28:49.721Z,2.65
2023-03-31T15:31:19.519Z,1.90
2023-03-31T15:33:47.156Z,1.67
2023-03-31T15:36:14.804Z,2.78
2023-03-31T15:38:42.286Z,2.20
2023-03-31T15:41:12.329Z,1.45
2023-03-31T15:43:45.118Z,1.70
2023-03-31T15:46:16.475Z,1.23
2023-03-31T15:48:53.122Z,1.75
2023-03-31T15:51:24.389Z,1.77
2023-03-31T15:53:53.772Z,2.33
2023-03-31T15:56:27.216Z,2.47
2023-03-31T15:58:55.670Z,1.80
2023-03-31T16:01:23.449Z,2.65
2023-03-31T16:03:54.556Z,2.30
2023-03-31T16:06:24.183Z,1.67
2023-03-31T16:08:54.083Z,3.45
2023-03-31T16:11:23.233Z,2.50
2023-03-31T16:13:52.855Z,4.47
2023-03-31T16:16:22.330Z,3.65
2023-03-31T16:18:51.198Z,2.20
2023-03-31T16:21:22.865Z,1.83
2023-03-31T16:23:52.814Z,2.60
2023-03-31T16:26:21.250Z,2.40
2023-03-31T16:28:50.864Z,1.90
2023-03-31T16:31:28.599Z,1.95
2023-03-31T16:33:56.511Z,3.10
2023-03-31T16:36:25.148Z,3.57
2023-03-31T16:38:53.117Z,2.20
2023-03-31T16:41:21.139Z,2.47
2023-03-31T16:43:49.674Z,2.60
2023-03-31T16:46:16.913Z,2.78
2023-03-31T16:48:43.974Z,2.50
2023-03-31T16:51:11.422Z,3.30
2023-03-31T16:53:40.424Z,4.00
2023-03-31T16:56:08.432Z,3.88
2023-03-31T16:58:36.021Z,4.07
2023-03-31T17:01:03.670Z,2.63
2023-03-31T17:03:31.732Z,2.70
2023-03-31T17:06:03.832Z,3.45
2023-03-31T17:08:31.431Z,2.47
2023-03-31T17:11:03.168Z,2.80
2023-03-31T17:13:31.002Z,3.17
2023-03-31T17:16:04.720Z,2.03
2023-03-31T17:18:43.481Z,1.80
2023-03-31T17:21:11.858Z,5.38
2023-03-31T17:23:39.458Z,3.08
2023-03-31T17:26:10.600Z,2.63
2023-03-31T17:28:38.511Z,3.00
2023-03-31T17:31:11.509Z,1.85
2023-03-31T17:33:38.465Z,2.38
2023-03-31T17:36:05.852Z,2.33
2023-03-31T17:38:33.008Z,2.93
2023-03-31T17:41:02.802Z,3.05
2023-03-31T17:43:31.224Z,3.95
2023-03-31T17:46:01.785Z,3.53
2023-03-31T17:48:28.853Z,3.53
2023-03-31T17:50:56.021Z,3.20
2023-03-31T17:53:23.125Z,4.90
2023-03-31T17:55:50.070Z,5.80
2023-03-31T17:58:17.131Z,5.50
2023-03-31T18:00:46.148Z,4.80
2023-03-31T18:03:13.090Z,4.43
2023-03-31T18:05:41.292Z,4.30
2023-03-31T18:08:08.938Z,3.63
2023-03-31T18:10:37.352Z,4.20
2023-03-31T18:13:05.758Z,2.67
2023-03-31T18:15:32.882Z,4.03
2023-03-31T18:18:01.696Z,3.25
2023-03-31T18:20:28.734Z,3.65
2023-03-31T18:22:55.766Z,2.97
2023-03-31T18:25:23.040Z,1.70
2023-03-31T18:27:50.712Z,1.13
2023-03-31T18:30:17.870Z,1.30
2023-03-31T18:32:45.535Z,1.38
2023-03-31T18:35:16.569Z,1.70
2023-03-31T18:37:44.056Z,0.85
2023-03-31T18:40:11.918Z,0.97
2023-03-31T18:42:38.955Z,1.92
2023-03-31T18:45:06.694Z,2.30
2023-03-31T18:47:33.918Z,0.95
2023-03-31T18:50:01.280Z,1.45
2023-03-31T18:52:30.235Z,2.07
2023-03-31T18:54:57.651Z,2.00
2023-03-31T18:57:25.273Z,1.50
2023-03-31T18:59:52.757Z,1.02
2023-03-31T19:02:20.229Z,1.23
2023-03-31T19:04:48.122Z,1.23
2023-03-31T19:07:15.834Z,1.50
2023-03-31T19:09:44.613Z,1.65
2023-03-31T19:12:11.963Z,1.02
2023-03-31T19:14:41.231Z,1.80
2023-03-31T19:17:08.921Z,2.40
2023-03-31T19:19:36.048Z,3.53
2023-03-31T19:22:03.019Z,2.92
2023-03-31T19:24:30.336Z,2.78
2023-03-31T19:26:59.039Z,1.90
2023-03-31T19:29:28.120Z,3.00
2023-03-31T19:31:55.117Z,2.60
2023-03-31T19:34:22.554Z,4.13
2023-03-31T19:36:49.751Z,4.65
2023-03-31T19:39:17.037Z,1.77
2023-03-31T19:41:44.233Z,4.07
2023-03-31T19:44:13.066Z,2.97
2023-03-31T19:46:40.439Z,3.92
2023-03-31T19:49:08.183Z,3.65
2023-03-31T19:51:35.588Z,3.08
2023-03-31T19:54:03.082Z,4.20
2023-03-31T19:56:32.322Z,4.38
2023-03-31T19:58:59.876Z,4.93
2023-03-31T20:01:28.857Z,3.65
2023-03-31T20:03:56.599Z,3.42
2023-03-31T20:06:24.969Z,2.80
2023-03-31T20:08:52.521Z,3.10
2023-03-31T20:11:20.856Z,1.52
2023-03-31T20:13:48.307Z,1.25
2023-03-31T20:16:17.890Z,1.27
2023-03-31T20:18:48.281Z,0.90
2023-03-31T20:21:17.086Z,0.85
2023-03-31T20:23:44.562Z,3.40
2023-03-31T20:26:12.486Z,4.43
2023-03-31T20:28:39.932Z,3.85
2023-03-31T20:31:07.641Z,1.80
2023-03-31T20:33:35.332Z,1.40
2023-03-31T20:36:04.720Z,0.98
2023-03-31T20:38:33.005Z,1.50
2023-03-31T20:41:00.211Z,1.15
2023-03-31T20:43:27.562Z,1.93
2023-03-31T20:45:57.739Z,1.27
2023-03-31T20:48:25.621Z,2.33
2023-03-31T20:50:53.074Z,2.90
2023-03-31T20:53:21.581Z,2.22
2023-03-31T20:55:48.821Z,1.00
2023-03-31T20:58:16.186Z,2.50
2023-03-31T21:00:43.376Z,2.97
2023-03-31T21:03:10.769Z,3.03
2023-03-31T21:05:42.037Z,2.40
2023-03-31T21:08:09.145Z,3.57
2023-03-31T21:10:41.495Z,2.72
2023-03-31T21:13:09.681Z,2.72
2023-03-31T21:15:36.864Z,2.65
2023-03-31T21:18:04.225Z,2.72
2023-03-31T21:20:32.738Z,2.50
2023-03-31T21:23:01.091Z,2.60
2023-03-31T21:25:28.176Z,2.67
2023-03-31T21:27:57.034Z,3.83
2023-03-31T21:30:23.988Z,3.55
2023-03-31T21:32:50.909Z,3.23
2023-03-31T21:35:18.394Z,3.10
2023-03-31T21:37:45.893Z,2.60
2023-03-31T21:40:14.429Z,2.88
2023-03-31T21:42:41.529Z,3.08
2023-03-31T21:45:11.280Z,3.60
2023-03-31T21:47:38.590Z,3.25
2023-03-31T21:50:06.176Z,3.42
2023-03-31T21:52:33.441Z,3.10
2023-03-31T21:55:00.495Z,2.95
2023-03-31T21:57:27.439Z,2.30
2023-03-31T21:59:54.527Z,2.03
2023-03-31T22:02:23.723Z,1.23
2023-03-31T22:04:50.988Z,1.98
2023-03-31T22:07:18.175Z,1.60
2023-03-31T22:09:45.167Z,2.40
2023-03-31T22:12:12.769Z,2.10
2023-03-31T22:14:39.699Z,2.08
2023-03-31T22:17:06.643Z,2.35
2023-03-31T22:19:35.082Z,2.95
2023-03-31T22:22:02.453Z,3.70
2023-03-31T22:24:29.348Z,3.30
2023-03-31T22:26:56.361Z,2.40
2023-03-31T22:29:23.369Z,2.40
2023-03-31T22:31:50.733Z,1.92
2023-03-31T22:34:19.645Z,1.20
2023-03-31T22:36:48.385Z,3.47
2023-03-31T22:39:16.441Z,3.80
2023-03-31T22:41:43.945Z,5.10
2023-03-31T22:44:11.234Z,4.13
2023-03-31T22:46:38.848Z,3.17
2023-03-31T22:49:06.101Z,2.85
2023-03-31T22:51:34.828Z,4.82
2023-03-31T22:54:03.399Z,4.15
2023-03-31T22:56:30.589Z,3.40
2023-03-31T22:58:58.122Z,3.30
2023-03-31T23:01:25.207Z,2.40
2023-03-31T23:03:52.307Z,1.70
2023-03-31T23:06:19.314Z,2.10
2023-03-31T23:08:48.718Z,1.60
2023-03-31T23:11:18.923Z,1.40
2023-03-31T23:13:51.413Z,1.80
2023-03-31T23:16:19.429Z,1.48
2023-03-31T23:18:47.637Z,1.58
2023-03-31T23:21:15.236Z,1.60
2023-03-31T23:23:42.521Z,2.03
2023-03-31T23:26:09.554Z,1.70
2023-03-31T23:28:38.260Z,1.60
2023-03-31T23:31:05.646Z,1.45
2023-03-31T23:33:33.221Z,1.38
2023-03-31T23:36:01.131Z,0.87
2023-03-31T23:38:28.350Z,0.73
2023-03-31T23:40:55.383Z,1.08
2023-03-31T23:43:22.380Z,1.10
2023-03-31T23:45:50.949Z,1.13
2023-03-31T23:48:18.015Z,1.23
2023-03-31T23:50:45.260Z,1.00
2023-03-31T23:53:12.474Z,0.90
2023-03-31T23:55:39.513Z,1.20
2023-03-31T23:58:07.010Z,1.00
